createdAt,value
2018-07-14T00:02:27.288Z,9.97
2018-07-14T00:06:30.960Z,6.67
2018-07-14T00:10:34.609Z,8.20
2018-07-14T00:14:38.279Z,6.60
2018-07-14T00:18:41.944Z,9.13
2018-07-14T00:22:45.608Z,10.30
2018-07-14T00:26:49.333Z,7.03
2018-07-14T00:30:52.967Z,8.50
2018-07-14T00:34:56.640Z,5.87
2018-07-14T00:39:00.303Z,7.63
2018-07-14T00:43:04.450Z,7.27
2018-07-14T00:47:08.149Z,7.47
2018-07-14T00:51:11.880Z,7.47
2018-07-14T00:55:15.569Z,6.60
2018-07-14T00:59:19.230Z,9.63
2018-07-14T01:03:22.880Z,7.33
2018-07-14T01:07:26.663Z,9.30
2018-07-14T01:11:30.282Z,9.27
2018-07-14T01:15:34.295Z,8.90
2018-07-14T01:19:38.012Z,6.97
2018-07-14T01:23:43.114Z,11.03
2018-07-14T01:27:48.016Z,9.50
2018-07-14T01:31:52.591Z,9.23
2018-07-14T01:35:58.511Z,8.23
2018-07-14T01:40:02.168Z,8.50
2018-07-14T01:44:05.827Z,8.53
2018-07-14T01:48:09.155Z,14.43
2018-07-14T01:52:12.772Z,8.37
2018-07-14T01:56:16.528Z,10.10
2018-07-14T02:00:20.180Z,9.33
2018-07-14T02:04:23.812Z,10.70
2018-07-14T02:08:27.444Z,10.63
2018-07-14T02:12:31.055Z,8.40
2018-07-14T02:16:34.723Z,10.00
2018-07-14T02:20:38.373Z,10.73
2018-07-14T02:24:42.077Z,11.67
2018-07-14T02:28:45.711Z,12.80
2018-07-14T02:32:49.320Z,14.57
2018-07-14T02:36:52.996Z,9.60
2018-07-14T02:40:56.680Z,7.93
2018-07-14T02:45:00.359Z,9.03
2018-07-14T02:49:04.018Z,9.03
2018-07-14T02:53:07.736Z,8.73
2018-07-14T02:57:11.456Z,9.40
2018-07-14T03:01:15.097Z,9.23
2018-07-14T03:05:18.743Z,9.30
2018-07-14T03:09:22.406Z,9.03
2018-07-14T03:13:26.086Z,10.10
2018-07-14T03:17:29.751Z,11.20
2018-07-14T03:21:33.391Z,11.93
2018-07-14T03:25:37.062Z,9.40
2018-07-14T03:29:40.752Z,8.33
2018-07-14T03:33:44.348Z,10.53
2018-07-14T03:37:47.991Z,10.07
2018-07-14T03:41:51.758Z,8.97
2018-07-14T03:45:55.075Z,9.73
2018-07-14T03:49:58.728Z,8.80
2018-07-14T03:54:02.393Z,9.70
2018-07-14T03:58:06.084Z,12.27
2018-07-14T04:02:09.725Z,9.80
2018-07-14T04:06:13.417Z,8.90
2018-07-14T04:10:17.071Z,11.43
2018-07-14T04:14:20.700Z,8.67
2018-07-14T04:18:24.365Z,11.10
2018-07-14T04:22:28.016Z,10.73
2018-07-14T04:26:31.684Z,11.47
2018-07-14T04:30:35.312Z,12.03
2018-07-14T04:34:38.919Z,10.57
2018-07-14T04:38:42.560Z,14.17
2018-07-14T04:42:46.201Z,13.90
2018-07-14T04:46:49.844Z,11.33
2018-07-14T04:50:53.512Z,17.77
2018-07-14T04:54:57.191Z,17.20
2018-07-14T04:59:00.834Z,15.40
2018-07-14T05:03:04.499Z,16.20
2018-07-14T05:07:08.159Z,15.43
2018-07-14T05:11:11.852Z,14.23
2018-07-14T05:15:15.469Z,13.70
2018-07-14T05:19:19.103Z,11.13
2018-07-14T05:23:22.751Z,13.20
2018-07-14T05:27:26.402Z,13.00
2018-07-14T05:31:30.108Z,10.87
2018-07-14T05:35:34.184Z,13.40
2018-07-14T05:39:37.817Z,10.17
2018-07-14T05:43:41.482Z,11.50
2018-07-14T05:47:45.153Z,11.70
2018-07-14T05:51:48.832Z,8.40
2018-07-14T05:55:52.511Z,8.57
2018-07-14T05:59:56.168Z,10.37
2018-07-14T06:03:59.815Z,8.73
2018-07-14T06:08:03.509Z,7.77
2018-07-14T06:12:07.232Z,7.23
2018-07-14T06:16:10.848Z,7.13
2018-07-14T06:20:14.499Z,11.37
2018-07-14T06:24:18.243Z,10.43
2018-07-14T06:28:21.887Z,10.60
2018-07-14T06:32:25.568Z,4.87
2018-07-14T06:36:29.196Z,9.97
2018-07-14T06:40:32.860Z,7.00
2018-07-14T06:44:36.518Z,6.13
2018-07-14T06:48:40.204Z,5.43
2018-07-14T06:52:44.048Z,4.97
2018-07-14T06:56:47.746Z,5.60
2018-07-14T07:00:51.408Z,5.80
2018-07-14T07:04:55.086Z,5.53
2018-07-14T07:08:58.747Z,3.37
2018-07-14T07:13:02.525Z,4.73
2018-07-14T07:17:06.251Z,3.80
2018-07-14T07:21:09.924Z,5.20
2018-07-14T07:25:13.600Z,4.57
2018-07-14T07:29:17.244Z,5.73
2018-07-14T07:33:20.898Z,4.60
2018-07-14T07:37:24.527Z,4.80
2018-07-14T07:41:28.188Z,4.33
2018-07-14T07:45:31.849Z,4.50
2018-07-14T07:49:35.545Z,3.77
2018-07-14T07:53:39.216Z,4.63
2018-07-14T07:57:42.864Z,4.17
2018-07-14T08:01:46.572Z,4.43
2018-07-14T08:05:50.248Z,3.70
2018-07-14T08:09:53.906Z,5.20
2018-07-14T08:13:57.609Z,3.63
2018-07-14T08:18:01.240Z,4.07
2018-07-14T08:22:04.929Z,6.53
2018-07-14T08:26:08.600Z,4.57
2018-07-14T08:30:12.285Z,5.23
2018-07-14T08:34:15.970Z,6.13
2018-07-14T08:38:19.593Z,4.27
2018-07-14T08:42:23.283Z,6.60
2018-07-14T08:46:26.980Z,8.07
2018-07-14T08:50:30.683Z,4.80
2018-07-14T08:54:34.389Z,7.20
2018-07-14T08:58:38.000Z,9.07
2018-07-14T09:02:41.637Z,5.50
2018-07-14T09:06:45.260Z,9.27
2018-07-14T09:10:48.934Z,6.30
2018-07-14T09:14:52.597Z,7.90
2018-07-14T09:18:56.208Z,8.33
2018-07-14T09:22:59.853Z,9.63
2018-07-14T09:27:03.570Z,8.53
2018-07-14T09:31:07.237Z,11.37
2018-07-14T09:35:10.912Z,9.00
2018-07-14T09:39:14.527Z,10.60
2018-07-14T09:43:18.169Z,11.83
2018-07-14T09:47:21.836Z,11.27
2018-07-14T09:51:25.492Z,9.77
2018-07-14T09:55:29.290Z,10.67
2018-07-14T09:59:32.913Z,9.60
2018-07-14T10:03:37.043Z,11.57
2018-07-14T10:07:40.735Z,12.70
2018-07-14T10:11:44.385Z,13.87
2018-07-14T10:15:48.021Z,11.40
2018-07-14T10:19:51.680Z,13.93
2018-07-14T10:23:55.340Z,10.83
2018-07-14T10:27:59.028Z,16.50
2018-07-14T10:32:02.706Z,14.10
2018-07-14T10:36:06.412Z,10.63
2018-07-14T10:40:10.103Z,17.33
2018-07-14T10:44:13.784Z,11.97
2018-07-14T10:48:17.447Z,15.60
2018-07-14T10:52:21.096Z,9.77
2018-07-14T10:56:24.764Z,10.47
2018-07-14T11:00:28.452Z,10.93
2018-07-14T11:04:32.195Z,11.07
2018-07-14T11:08:35.767Z,11.50
2018-07-14T11:12:39.428Z,7.87
2018-07-14T11:16:43.080Z,6.83
2018-07-14T11:20:46.739Z,7.60
2018-07-14T11:24:50.446Z,6.43
2018-07-14T11:28:54.108Z,7.03
2018-07-14T11:32:57.757Z,8.53
2018-07-14T11:37:01.548Z,5.87
2018-07-14T11:41:05.264Z,5.33
2018-07-14T11:45:08.985Z,5.97
2018-07-14T11:49:12.671Z,6.43
2018-07-14T11:53:16.320Z,7.70
2018-07-14T11:57:20.031Z,5.03
2018-07-14T12:01:23.758Z,7.60
2018-07-14T12:05:27.395Z,6.67
2018-07-14T12:09:31.048Z,9.90
2018-07-14T12:13:34.733Z,6.50
2018-07-14T12:17:38.388Z,6.70
2018-07-14T12:21:42.053Z,5.20
2018-07-14T12:25:45.719Z,9.97
2018-07-14T12:29:49.384Z,5.00
2018-07-14T12:33:53.052Z,6.33
2018-07-14T12:37:56.705Z,5.13
2018-07-14T12:42:00.339Z,5.67
2018-07-14T12:46:04.017Z,11.10
2018-07-14T12:50:07.763Z,10.37
2018-07-14T12:54:11.447Z,4.10
2018-07-14T12:58:15.143Z,6.60
2018-07-14T13:02:18.836Z,5.50
2018-07-14T13:06:22.610Z,5.13
2018-07-14T13:10:26.264Z,8.53
2018-07-14T13:14:29.987Z,7.83
2018-07-14T13:18:33.669Z,6.43
2018-07-14T13:22:37.300Z,7.73
2018-07-14T13:26:40.971Z,6.50
2018-07-14T13:30:44.615Z,5.73
2018-07-14T13:34:48.263Z,5.87
2018-07-14T13:38:52.019Z,5.07
2018-07-14T13:42:55.584Z,6.23
2018-07-14T13:46:59.275Z,6.47
2018-07-14T13:51:02.995Z,4.67
2018-07-14T13:55:06.895Z,3.67
2018-07-14T13:59:10.535Z,5.67
2018-07-14T14:03:14.184Z,6.73
2018-07-14T14:07:17.869Z,5.47
2018-07-14T14:11:21.659Z,3.97
2018-07-14T14:15:25.338Z,4.23
2018-07-14T14:19:29.011Z,3.53
2018-07-14T14:23:32.622Z,4.57
2018-07-14T14:27:36.283Z,8.33
2018-07-14T14:31:39.972Z,5.37
2018-07-14T14:35:43.629Z,3.87
2018-07-14T14:39:47.272Z,5.33
2018-07-14T14:43:50.952Z,7.87
2018-07-14T14:47:54.610Z,3.13
2018-07-14T14:51:58.273Z,3.13
2018-07-14T14:56:02.045Z,4.67
2018-07-14T15:00:05.829Z,2.57
2018-07-14T15:04:09.455Z,3.90
2018-07-14T15:08:13.129Z,6.20
2018-07-14T15:12:16.811Z,2.77
2018-07-14T15:16:20.541Z,3.30
2018-07-14T15:20:24.240Z,11.57
2018-07-14T15:24:27.919Z,9.07
2018-07-14T15:28:31.570Z,6.87
2018-07-14T15:32:35.298Z,4.97
2018-07-14T15:36:39.008Z,2.37
2018-07-14T15:40:42.687Z,4.07
2018-07-14T15:44:46.299Z,1.47
2018-07-14T15:48:49.971Z,4.83
2018-07-14T15:52:53.653Z,4.63
2018-07-14T15:56:57.451Z,14.27
2018-07-14T16:01:01.148Z,3.67
2018-07-14T16:05:04.980Z,3.37
2018-07-14T16:09:09.514Z,3.07
2018-07-14T16:13:13.204Z,2.53
2018-07-14T16:17:16.897Z,2.17
2018-07-14T16:21:20.561Z,3.70
2018-07-14T16:25:24.221Z,2.60
2018-07-14T16:29:27.911Z,2.80
2018-07-14T16:33:31.549Z,3.70
2018-07-14T16:37:35.211Z,16.20
2018-07-14T16:41:39.627Z,4.30
2018-07-14T16:45:43.324Z,2.70
2018-07-14T16:49:46.996Z,9.27
2018-07-14T16:53:50.667Z,13.90
2018-07-14T16:57:54.356Z,7.70
2018-07-14T17:01:58.024Z,16.57
2018-07-14T17:06:01.688Z,8.20
2018-07-14T17:10:05.419Z,2.80
2018-07-14T17:14:09.254Z,4.27
2018-07-14T17:18:12.743Z,3.10
2018-07-14T17:22:16.385Z,3.20
2018-07-14T17:26:20.092Z,2.73
2018-07-14T17:30:23.708Z,2.60
2018-07-14T17:34:27.359Z,4.10
2018-07-14T17:38:30.994Z,3.60
2018-07-14T17:42:34.692Z,2.70
2018-07-14T17:46:38.429Z,4.13
2018-07-14T17:50:42.067Z,5.20
2018-07-14T17:54:45.721Z,3.40
2018-07-14T17:58:49.409Z,2.17
2018-07-14T18:02:53.100Z,2.77
2018-07-14T18:06:56.725Z,4.30
2018-07-14T18:11:00.391Z,2.10
2018-07-14T18:15:04.120Z,2.60
2018-07-14T18:19:07.761Z,3.90
2018-07-14T18:23:11.378Z,2.37
2018-07-14T18:27:15.084Z,1.93
2018-07-14T18:31:18.686Z,2.57
2018-07-14T18:35:22.308Z,3.27
2018-07-14T18:39:25.959Z,1.77
2018-07-14T18:43:29.588Z,2.13
2018-07-14T18:47:33.231Z,3.47
2018-07-14T18:51:36.830Z,1.83
2018-07-14T18:55:40.585Z,2.30
2018-07-14T18:59:44.206Z,4.33
2018-07-14T19:03:47.959Z,3.23
2018-07-14T19:07:51.601Z,1.60
2018-07-14T19:11:55.229Z,4.23
2018-07-14T19:15:58.976Z,5.33
2018-07-14T19:20:02.700Z,2.47
2018-07-14T19:24:06.651Z,3.87
2018-07-14T19:28:10.303Z,8.17
2018-07-14T19:32:13.896Z,5.33
2018-07-14T19:36:17.540Z,3.60
2018-07-14T19:40:21.178Z,2.90
2018-07-14T19:44:24.823Z,6.47
2018-07-14T19:48:28.461Z,2.53
2018-07-14T19:52:32.079Z,4.10
2018-07-14T19:56:35.763Z,2.73
2018-07-14T20:00:39.448Z,3.83
2018-07-14T20:04:43.090Z,3.73
2018-07-14T20:08:46.731Z,1.50
2018-07-14T20:12:49.995Z,3.77
2018-07-14T20:16:53.654Z,4.00
2018-07-14T20:20:57.292Z,3.17
2018-07-14T20:25:05.516Z,2.00
2018-07-14T20:29:09.252Z,3.20
2018-07-14T20:33:12.896Z,4.10
2018-07-14T20:37:16.523Z,3.47
2018-07-14T20:41:20.205Z,5.67
2018-07-14T20:45:23.865Z,2.50
2018-07-14T20:49:27.577Z,2.07
2018-07-14T20:53:31.217Z,3.60
2018-07-14T20:57:34.855Z,2.10
2018-07-14T21:01:38.484Z,6.17
2018-07-14T21:05:42.095Z,3.30
2018-07-14T21:09:45.904Z,2.97
2018-07-14T21:13:49.576Z,2.27
2018-07-14T21:17:53.167Z,2.23
2018-07-14T21:21:56.856Z,4.80
2018-07-14T21:26:00.500Z,3.23
2018-07-14T21:30:04.214Z,4.60
2018-07-14T21:34:07.875Z,4.40
2018-07-14T21:38:11.468Z,3.67
2018-07-14T21:42:15.112Z,3.73
2018-07-14T21:46:18.776Z,2.90
2018-07-14T21:50:22.416Z,3.60
2018-07-14T21:54:26.075Z,2.83
2018-07-14T21:58:29.668Z,3.57
2018-07-14T22:02:33.334Z,6.00
2018-07-14T22:06:37.000Z,2.30
2018-07-14T22:10:40.659Z,3.43
2018-07-14T22:14:44.294Z,2.63
2018-07-14T22:18:47.896Z,3.90
2018-07-14T22:22:51.684Z,2.57
2018-07-14T22:26:55.435Z,2.93
2018-07-14T22:30:59.070Z,3.67
2018-07-14T22:35:02.784Z,2.50
2018-07-14T22:39:07.222Z,1.73
2018-07-14T22:43:10.939Z,2.00
2018-07-14T22:47:14.608Z,1.57
2018-07-14T22:51:18.256Z,3.20
2018-07-14T22:55:22.023Z,2.00
2018-07-14T22:59:25.616Z,1.50
2018-07-14T23:03:29.263Z,4.73
2018-07-14T23:07:32.887Z,3.30
2018-07-14T23:11:36.199Z,1.53
2018-07-14T23:15:39.840Z,3.40
2018-07-14T23:19:43.539Z,1.80
2018-07-14T23:23:47.172Z,1.83
2018-07-14T23:27:50.804Z,1.37
2018-07-14T23:31:54.547Z,1.10
2018-07-14T23:35:58.259Z,2.10
2018-07-14T23:40:01.872Z,2.37
2018-07-14T23:44:05.593Z,1.70
2018-07-14T23:48:09.246Z,1.30
2018-07-14T23:52:12.930Z,2.07
2018-07-14T23:56:16.730Z,2.13
